sensor_id;sensor_type;location;lat;lon;timestamp;temperature;humidity
20722;DHT22;10522;52.198;9.890;2023-04-07T00:01:43;4.20;99.90
20722;DHT22;10522;52.198;9.890;2023-04-07T00:04:08;4.30;99.90
20722;DHT22;10522;52.198;9.890;2023-04-07T00:06:34;4.30;99.90
20722;DHT22;10522;52.198;9.890;2023-04-07T00:09:00;4.00;99.90
20722;DHT22;10522;52.198;9.890;2023-04-07T00:11:26;3.90;99.90
20722;DHT22;10522;52.198;9.890;2023-04-07T00:13:51;4.10;99.90
20722;DHT22;10522;52.198;9.890;2023-04-07T00:16:17;4.40;99.90
20722;DHT22;10522;52.198;9.890;2023-04-07T00:18:43;4.60;99.90
20722;DHT22;10522;52.198;9.890;2023-04-07T00:21:08;4.50;99.90
20722;DHT22;10522;52.198;9.890;2023-04-07T00:23:34;4.60;99.90
20722;DHT22;10522;52.198;9.890;2023-04-07T00:26:00;4.60;99.90
20722;DHT22;10522;52.198;9.890;2023-04-07T00:28:26;4.80;99.90
20722;DHT22;10522;52.198;9.890;2023-04-07T00:30:51;4.50;99.90
20722;DHT22;10522;52.198;9.890;2023-04-07T00:33:17;3.90;99.90
20722;DHT22;10522;52.198;9.890;2023-04-07T00:35:42;3.40;99.90
20722;DHT22;10522;52.198;9.890;2023-04-07T00:38:08;2.90;99.90
20722;DHT22;10522;52.198;9.890;2023-04-07T00:40:33;2.50;99.90
20722;DHT22;10522;52.198;9.890;2023-04-07T00:42:59;2.40;99.90
20722;DHT22;10522;52.198;9.890;2023-04-07T00:45:25;2.30;99.90
20722;DHT22;10522;52.198;9.890;2023-04-07T00:47:51;2.20;99.90
20722;DHT22;10522;52.198;9.890;2023-04-07T00:50:17;2.10;99.90
20722;DHT22;10522;52.198;9.890;2023-04-07T00:52:44;2.20;99.90
20722;DHT22;10522;52.198;9.890;2023-04-07T00:55:10;2.30;99.90
20722;DHT22;10522;52.198;9.890;2023-04-07T00:57:36;2.40;99.90
20722;DHT22;10522;52.198;9.890;2023-04-07T01:00:02;2.50;99.90
20722;DHT22;10522;52.198;9.890;2023-04-07T01:03:00;2.60;99.90
20722;DHT22;10522;52.198;9.890;2023-04-07T01:05:40;2.80;99.90
20722;DHT22;10522;52.198;9.890;2023-04-07T01:08:33;3.00;99.90
20722;DHT22;10522;52.198;9.890;2023-04-07T01:11:07;3.20;99.90
20722;DHT22;10522;52.198;9.890;2023-04-07T01:13:43;3.20;99.90
20722;DHT22;10522;52.198;9.890;2023-04-07T01:16:19;3.20;99.90
20722;DHT22;10522;52.198;9.890;2023-04-07T01:18:51;3.30;99.90
20722;DHT22;10522;52.198;9.890;2023-04-07T01:21:18;3.40;99.90
20722;DHT22;10522;52.198;9.890;2023-04-07T01:24:02;3.60;99.90
20722;DHT22;10522;52.198;9.890;2023-04-07T01:26:34;3.60;99.90
20722;DHT22;10522;52.198;9.890;2023-04-07T01:31:59;4.00;99.90
20722;DHT22;10522;52.198;9.890;2023-04-07T01:34:29;4.00;99.90
20722;DHT22;10522;52.198;9.890;2023-04-07T01:36:57;4.00;99.90
20722;DHT22;10522;52.198;9.890;2023-04-07T01:39:26;4.00;99.90
20722;DHT22;10522;52.198;9.890;2023-04-07T01:41:53;3.90;99.90
20722;DHT22;10522;52.198;9.890;2023-04-07T01:44:20;3.90;99.90
20722;DHT22;10522;52.198;9.890;2023-04-07T01:46:46;3.90;99.90
20722;DHT22;10522;52.198;9.890;2023-04-07T01:49:13;4.00;99.90
20722;DHT22;10522;52.198;9.890;2023-04-07T01:51:40;3.90;99.90
20722;DHT22;10522;52.198;9.890;2023-04-07T01:54:06;3.80;99.90
20722;DHT22;10522;52.198;9.890;2023-04-07T01:56:33;3.90;99.90
20722;DHT22;10522;52.198;9.890;2023-04-07T01:58:58;3.70;99.90
20722;DHT22;10522;52.198;9.890;2023-04-07T02:01:24;3.60;99.90
20722;DHT22;10522;52.198;9.890;2023-04-07T02:03:55;3.50;99.90
20722;DHT22;10522;52.198;9.890;2023-04-07T02:06:31;3.50;99.90
20722;DHT22;10522;52.198;9.890;2023-04-07T02:09:03;3.60;99.90
20722;DHT22;10522;52.198;9.890;2023-04-07T02:11:31;3.50;99.90
20722;DHT22;10522;52.198;9.890;2023-04-07T02:13:57;3.30;99.90
20722;DHT22;10522;52.198;9.890;2023-04-07T02:16:28;3.10;99.90
20722;DHT22;10522;52.198;9.890;2023-04-07T02:18:55;3.00;99.90
20722;DHT22;10522;52.198;9.890;2023-04-07T02:21:21;2.90;99.90
20722;DHT22;10522;52.198;9.890;2023-04-07T02:23:48;2.90;99.90
20722;DHT22;10522;52.198;9.890;2023-04-07T02:26:14;2.90;99.90
20722;DHT22;10522;52.198;9.890;2023-04-07T02:28:39;2.90;99.90
20722;DHT22;10522;52.198;9.890;2023-04-07T02:31:05;3.00;99.90
20722;DHT22;10522;52.198;9.890;2023-04-07T02:33:30;2.90;99.90
20722;DHT22;10522;52.198;9.890;2023-04-07T02:35:56;2.80;99.90
20722;DHT22;10522;52.198;9.890;2023-04-07T02:38:22;2.80;99.90
20722;DHT22;10522;52.198;9.890;2023-04-07T02:40:47;2.70;99.90
20722;DHT22;10522;52.198;9.890;2023-04-07T02:43:13;2.80;99.90
20722;DHT22;10522;52.198;9.890;2023-04-07T02:45:39;2.70;99.90
20722;DHT22;10522;52.198;9.890;2023-04-07T02:48:04;2.70;99.90
20722;DHT22;10522;52.198;9.890;2023-04-07T02:50:30;2.70;99.90
20722;DHT22;10522;52.198;9.890;2023-04-07T02:52:56;2.70;99.90
20722;DHT22;10522;52.198;9.890;2023-04-07T02:55:21;2.60;99.90
20722;DHT22;10522;52.198;9.890;2023-04-07T02:57:47;2.60;99.90
20722;DHT22;10522;52.198;9.890;2023-04-07T03:00:14;2.60;99.90
20722;DHT22;10522;52.198;9.890;2023-04-07T03:02:40;2.50;99.90
20722;DHT22;10522;52.198;9.890;2023-04-07T03:05:05;2.50;99.90
20722;DHT22;10522;52.198;9.890;2023-04-07T03:07:31;2.40;99.90
20722;DHT22;10522;52.198;9.890;2023-04-07T03:09:57;2.40;99.90
20722;DHT22;10522;52.198;9.890;2023-04-07T03:12:22;2.40;99.90
20722;DHT22;10522;52.198;9.890;2023-04-07T03:14:48;2.30;99.90
20722;DHT22;10522;52.198;9.890;2023-04-07T03:17:13;2.30;99.90
20722;DHT22;10522;52.198;9.890;2023-04-07T03:19:39;2.20;99.90
20722;DHT22;10522;52.198;9.890;2023-04-07T03:22:04;2.20;99.90
20722;DHT22;10522;52.198;9.890;2023-04-07T03:24:30;2.20;99.90
20722;DHT22;10522;52.198;9.890;2023-04-07T03:26:56;2.20;99.90
20722;DHT22;10522;52.198;9.890;2023-04-07T03:29:21;2.30;99.90
20722;DHT22;10522;52.198;9.890;2023-04-07T03:31:47;2.20;99.90
20722;DHT22;10522;52.198;9.890;2023-04-07T03:34:14;2.20;99.90
20722;DHT22;10522;52.198;9.890;2023-04-07T03:36:40;2.20;99.90
20722;DHT22;10522;52.198;9.890;2023-04-07T03:39:05;2.20;99.90
20722;DHT22;10522;52.198;9.890;2023-04-07T03:41:31;2.20;99.90
20722;DHT22;10522;52.198;9.890;2023-04-07T03:43:56;2.20;99.90
20722;DHT22;10522;52.198;9.890;2023-04-07T03:46:22;2.10;99.90
20722;DHT22;10522;52.198;9.890;2023-04-07T03:48:48;2.10;99.90
20722;DHT22;10522;52.198;9.890;2023-04-07T03:51:14;2.00;99.90
20722;DHT22;10522;52.198;9.890;2023-04-07T03:53:40;2.00;99.90
20722;DHT22;10522;52.198;9.890;2023-04-07T03:56:06;2.00;99.90
20722;DHT22;10522;52.198;9.890;2023-04-07T03:58:31;2.00;99.90
20722;DHT22;10522;52.198;9.890;2023-04-07T04:00:57;1.90;99.90
20722;DHT22;10522;52.198;9.890;2023-04-07T04:03:22;1.80;99.90
20722;DHT22;10522;52.198;9.890;2023-04-07T04:05:48;1.80;99.90
20722;DHT22;10522;52.198;9.890;2023-04-07T04:08:14;1.70;99.90
20722;DHT22;10522;52.198;9.890;2023-04-07T04:10:39;1.70;99.90
20722;DHT22;10522;52.198;9.890;2023-04-07T04:13:05;1.60;99.90
20722;DHT22;10522;52.198;9.890;2023-04-07T04:15:32;1.50;99.90
20722;DHT22;10522;52.198;9.890;2023-04-07T04:17:58;1.50;99.90
20722;DHT22;10522;52.198;9.890;2023-04-07T04:20:23;1.50;99.90
20722;DHT22;10522;52.198;9.890;2023-04-07T04:22:49;1.40;99.90
20722;DHT22;10522;52.198;9.890;2023-04-07T04:25:18;1.40;99.90
20722;DHT22;10522;52.198;9.890;2023-04-07T04:27:44;1.40;99.90
20722;DHT22;10522;52.198;9.890;2023-04-07T04:30:10;1.30;99.90
20722;DHT22;10522;52.198;9.890;2023-04-07T04:32:36;1.30;99.90
20722;DHT22;10522;52.198;9.890;2023-04-07T04:35:01;1.20;99.90
20722;DHT22;10522;52.198;9.890;2023-04-07T04:37:27;1.30;99.90
20722;DHT22;10522;52.198;9.890;2023-04-07T04:39:52;1.20;99.90
20722;DHT22;10522;52.198;9.890;2023-04-07T04:42:18;1.30;99.90
20722;DHT22;10522;52.198;9.890;2023-04-07T04:44:44;1.20;99.90
20722;DHT22;10522;52.198;9.890;2023-04-07T04:47:09;1.30;99.90
20722;DHT22;10522;52.198;9.890;2023-04-07T04:49:35;1.20;99.90
20722;DHT22;10522;52.198;9.890;2023-04-07T04:52:01;1.30;99.90
20722;DHT22;10522;52.198;9.890;2023-04-07T04:54:26;1.30;99.90
20722;DHT22;10522;52.198;9.890;2023-04-07T04:56:52;1.30;99.90
20722;DHT22;10522;52.198;9.890;2023-04-07T04:59:17;1.30;99.90
20722;DHT22;10522;52.198;9.890;2023-04-07T05:01:43;1.30;99.90
20722;DHT22;10522;52.198;9.890;2023-04-07T05:04:08;1.30;99.90
20722;DHT22;10522;52.198;9.890;2023-04-07T05:06:34;1.30;99.90
20722;DHT22;10522;52.198;9.890;2023-04-07T05:09:00;1.30;99.90
20722;DHT22;10522;52.198;9.890;2023-04-07T05:11:26;1.40;99.90
20722;DHT22;10522;52.198;9.890;2023-04-07T05:13:51;1.50;99.90
20722;DHT22;10522;52.198;9.890;2023-04-07T05:16:17;1.50;99.90
20722;DHT22;10522;52.198;9.890;2023-04-07T05:18:42;1.50;99.90
20722;DHT22;10522;52.198;9.890;2023-04-07T05:21:08;1.50;99.90
20722;DHT22;10522;52.198;9.890;2023-04-07T05:23:34;1.50;99.90
20722;DHT22;10522;52.198;9.890;2023-04-07T05:26:00;1.50;99.90
20722;DHT22;10522;52.198;9.890;2023-04-07T05:28:26;1.60;99.90
20722;DHT22;10522;52.198;9.890;2023-04-07T05:30:51;1.50;99.90
20722;DHT22;10522;52.198;9.890;2023-04-07T05:33:17;1.60;99.90
20722;DHT22;10522;52.198;9.890;2023-04-07T05:35:43;1.60;99.90
20722;DHT22;10522;52.198;9.890;2023-04-07T05:38:10;1.60;99.90
20722;DHT22;10522;52.198;9.890;2023-04-07T05:40:36;1.70;99.90
20722;DHT22;10522;52.198;9.890;2023-04-07T05:43:01;1.80;99.90
20722;DHT22;10522;52.198;9.890;2023-04-07T05:45:27;1.80;99.90
20722;DHT22;10522;52.198;9.890;2023-04-07T05:47:52;1.90;99.90
20722;DHT22;10522;52.198;9.890;2023-04-07T05:50:18;1.90;99.90
20722;DHT22;10522;52.198;9.890;2023-04-07T05:52:43;1.90;99.90
20722;DHT22;10522;52.198;9.890;2023-04-07T05:55:09;2.00;99.90
20722;DHT22;10522;52.198;9.890;2023-04-07T05:57:35;2.10;99.90
20722;DHT22;10522;52.198;9.890;2023-04-07T06:00:01;2.20;99.90
20722;DHT22;10522;52.198;9.890;2023-04-07T06:02:26;2.30;99.90
20722;DHT22;10522;52.198;9.890;2023-04-07T06:04:52;2.40;99.90
20722;DHT22;10522;52.198;9.890;2023-04-07T06:07:18;2.50;99.90
20722;DHT22;10522;52.198;9.890;2023-04-07T06:09:43;2.60;99.90
20722;DHT22;10522;52.198;9.890;2023-04-07T06:12:09;2.70;99.90
20722;DHT22;10522;52.198;9.890;2023-04-07T06:14:37;2.70;99.90
20722;DHT22;10522;52.198;9.890;2023-04-07T06:17:04;2.80;99.90
20722;DHT22;10522;52.198;9.890;2023-04-07T06:19:31;2.80;99.90
20722;DHT22;10522;52.198;9.890;2023-04-07T06:21:57;2.90;99.90
20722;DHT22;10522;52.198;9.890;2023-04-07T06:24:22;3.00;99.90
20722;DHT22;10522;52.198;9.890;2023-04-07T06:26:51;3.00;99.90
20722;DHT22;10522;52.198;9.890;2023-04-07T06:29:17;3.10;99.90
20722;DHT22;10522;52.198;9.890;2023-04-07T06:31:42;3.10;99.90
20722;DHT22;10522;52.198;9.890;2023-04-07T06:34:08;3.20;99.90
20722;DHT22;10522;52.198;9.890;2023-04-07T06:36:34;3.20;99.90
20722;DHT22;10522;52.198;9.890;2023-04-07T06:39:01;3.30;99.90
20722;DHT22;10522;52.198;9.890;2023-04-07T06:41:26;3.40;99.90
20722;DHT22;10522;52.198;9.890;2023-04-07T06:43:52;3.40;99.90
20722;DHT22;10522;52.198;9.890;2023-04-07T06:46:18;3.40;99.90
20722;DHT22;10522;52.198;9.890;2023-04-07T06:48:44;3.50;99.90
20722;DHT22;10522;52.198;9.890;2023-04-07T06:51:10;3.70;99.90
20722;DHT22;10522;52.198;9.890;2023-04-07T06:53:36;3.80;99.90
20722;DHT22;10522;52.198;9.890;2023-04-07T06:56:06;3.90;99.90
20722;DHT22;10522;52.198;9.890;2023-04-07T06:58:34;4.00;99.90
20722;DHT22;10522;52.198;9.890;2023-04-07T07:01:00;4.20;99.90
20722;DHT22;10522;52.198;9.890;2023-04-07T07:03:26;4.40;99.90
20722;DHT22;10522;52.198;9.890;2023-04-07T07:05:55;4.60;99.90
20722;DHT22;10522;52.198;9.890;2023-04-07T07:08:25;4.90;99.90
20722;DHT22;10522;52.198;9.890;2023-04-07T07:10:52;5.10;99.90
20722;DHT22;10522;52.198;9.890;2023-04-07T07:13:20;5.20;99.90
20722;DHT22;10522;52.198;9.890;2023-04-07T07:15:56;5.40;99.90
20722;DHT22;10522;52.198;9.890;2023-04-07T07:18:21;5.30;99.90
20722;DHT22;10522;52.198;9.890;2023-04-07T07:20:47;5.30;99.90
20722;DHT22;10522;52.198;9.890;2023-04-07T07:23:13;5.20;99.90
20722;DHT22;10522;52.198;9.890;2023-04-07T07:25:38;5.20;99.90
20722;DHT22;10522;52.198;9.890;2023-04-07T07:28:04;5.20;99.90
20722;DHT22;10522;52.198;9.890;2023-04-07T07:30:30;5.40;99.90
20722;DHT22;10522;52.198;9.890;2023-04-07T07:32:56;5.50;99.90
20722;DHT22;10522;52.198;9.890;2023-04-07T07:35:22;5.80;99.90
20722;DHT22;10522;52.198;9.890;2023-04-07T07:37:47;6.20;99.90
20722;DHT22;10522;52.198;9.890;2023-04-07T07:40:13;6.50;99.90
20722;DHT22;10522;52.198;9.890;2023-04-07T07:42:40;6.80;99.90
20722;DHT22;10522;52.198;9.890;2023-04-07T07:45:06;7.10;99.90
20722;DHT22;10522;52.198;9.890;2023-04-07T07:47:32;7.30;99.90
20722;DHT22;10522;52.198;9.890;2023-04-07T07:49:58;7.40;99.90
20722;DHT22;10522;52.198;9.890;2023-04-07T07:52:23;7.70;99.90
20722;DHT22;10522;52.198;9.890;2023-04-07T07:54:50;7.60;99.90
20722;DHT22;10522;52.198;9.890;2023-04-07T07:57:16;7.50;99.90
20722;DHT22;10522;52.198;9.890;2023-04-07T07:59:42;7.60;99.90
20722;DHT22;10522;52.198;9.890;2023-04-07T08:02:08;7.90;99.90
20722;DHT22;10522;52.198;9.890;2023-04-07T08:04:35;7.90;99.90
20722;DHT22;10522;52.198;9.890;2023-04-07T08:07:01;7.60;99.90
20722;DHT22;10522;52.198;9.890;2023-04-07T08:09:27;7.60;99.90
20722;DHT22;10522;52.198;9.890;2023-04-07T08:11:52;7.60;99.90
20722;DHT22;10522;52.198;9.890;2023-04-07T08:14:18;7.90;99.90
20722;DHT22;10522;52.198;9.890;2023-04-07T08:16:44;8.30;99.90
20722;DHT22;10522;52.198;9.890;2023-04-07T08:19:11;8.70;99.90
20722;DHT22;10522;52.198;9.890;2023-04-07T08:21:36;8.90;99.90
20722;DHT22;10522;52.198;9.890;2023-04-07T08:24:02;9.10;99.90
20722;DHT22;10522;52.198;9.890;2023-04-07T08:26:28;9.10;99.90
20722;DHT22;10522;52.198;9.890;2023-04-07T08:28:53;9.30;99.90
20722;DHT22;10522;52.198;9.890;2023-04-07T08:31:20;9.40;99.90
20722;DHT22;10522;52.198;9.890;2023-04-07T08:33:46;9.30;99.90
20722;DHT22;10522;52.198;9.890;2023-04-07T08:36:11;9.30;99.90
20722;DHT22;10522;52.198;9.890;2023-04-07T08:38:37;9.30;99.90
20722;DHT22;10522;52.198;9.890;2023-04-07T08:41:16;9.40;99.90
20722;DHT22;10522;52.198;9.890;2023-04-07T08:43:43;9.70;99.90
20722;DHT22;10522;52.198;9.890;2023-04-07T08:46:11;9.90;99.90
20722;DHT22;10522;52.198;9.890;2023-04-07T08:48:38;9.70;99.90
20722;DHT22;10522;52.198;9.890;2023-04-07T08:51:05;9.70;99.90
20722;DHT22;10522;52.198;9.890;2023-04-07T08:53:53;9.90;99.90
20722;DHT22;10522;52.198;9.890;2023-04-07T08:56:20;10.00;99.90
20722;DHT22;10522;52.198;9.890;2023-04-07T08:58:47;10.10;99.90
20722;DHT22;10522;52.198;9.890;2023-04-07T09:01:13;10.20;99.90
20722;DHT22;10522;52.198;9.890;2023-04-07T09:03:41;10.40;99.90
20722;DHT22;10522;52.198;9.890;2023-04-07T09:06:07;10.20;99.90
20722;DHT22;10522;52.198;9.890;2023-04-07T09:08:35;10.40;99.90
20722;DHT22;10522;52.198;9.890;2023-04-07T09:11:01;10.70;99.90
20722;DHT22;10522;52.198;9.890;2023-04-07T09:13:27;10.90;99.90
20722;DHT22;10522;52.198;9.890;2023-04-07T09:15:53;11.20;99.90
20722;DHT22;10522;52.198;9.890;2023-04-07T09:18:19;11.30;99.90
20722;DHT22;10522;52.198;9.890;2023-04-07T09:20:57;11.40;99.90
20722;DHT22;10522;52.198;9.890;2023-04-07T09:23:31;11.50;99.90
20722;DHT22;10522;52.198;9.890;2023-04-07T09:25:58;11.60;99.90
20722;DHT22;10522;52.198;9.890;2023-04-07T09:28:37;11.60;99.90
20722;DHT22;10522;52.198;9.890;2023-04-07T09:31:02;11.60;99.90
20722;DHT22;10522;52.198;9.890;2023-04-07T09:33:29;11.70;99.90
20722;DHT22;10522;52.198;9.890;2023-04-07T09:35:56;11.80;99.90
20722;DHT22;10522;52.198;9.890;2023-04-07T09:38:22;11.70;99.90
20722;DHT22;10522;52.198;9.890;2023-04-07T09:41:04;11.60;99.90
20722;DHT22;10522;52.198;9.890;2023-04-07T09:43:31;11.80;99.90
20722;DHT22;10522;52.198;9.890;2023-04-07T09:46:29;12.00;99.90
20722;DHT22;10522;52.198;9.890;2023-04-07T09:49:03;12.30;99.90
20722;DHT22;10522;52.198;9.890;2023-04-07T09:51:32;12.20;99.90
20722;DHT22;10522;52.198;9.890;2023-04-07T09:54:00;11.90;99.90
20722;DHT22;10522;52.198;9.890;2023-04-07T09:56:28;11.80;99.90
20722;DHT22;10522;52.198;9.890;2023-04-07T09:58:54;11.90;99.90
20722;DHT22;10522;52.198;9.890;2023-04-07T10:01:20;11.90;99.90
20722;DHT22;10522;52.198;9.890;2023-04-07T10:03:47;12.00;99.90
20722;DHT22;10522;52.198;9.890;2023-04-07T10:06:14;11.90;99.90
20722;DHT22;10522;52.198;9.890;2023-04-07T10:08:41;11.90;99.90
20722;DHT22;10522;52.198;9.890;2023-04-07T10:11:08;12.10;99.90
20722;DHT22;10522;52.198;9.890;2023-04-07T10:13:36;12.10;99.90
20722;DHT22;10522;52.198;9.890;2023-04-07T10:16:05;12.10;99.90
20722;DHT22;10522;52.198;9.890;2023-04-07T10:18:33;12.40;99.90
20722;DHT22;10522;52.198;9.890;2023-04-07T10:21:03;12.40;99.90
20722;DHT22;10522;52.198;9.890;2023-04-07T10:26:25;12.50;99.90
20722;DHT22;10522;52.198;9.890;2023-04-07T10:28:56;12.70;99.90
20722;DHT22;10522;52.198;9.890;2023-04-07T10:31:23;12.70;99.90
20722;DHT22;10522;52.198;9.890;2023-04-07T10:33:53;12.50;99.90
20722;DHT22;10522;52.198;9.890;2023-04-07T10:36:20;12.40;99.90
20722;DHT22;10522;52.198;9.890;2023-04-07T10:39:24;12.20;99.90
20722;DHT22;10522;52.198;9.890;2023-04-07T10:41:50;12.60;99.90
20722;DHT22;10522;52.198;9.890;2023-04-07T10:47:04;13.10;99.90
20722;DHT22;10522;52.198;9.890;2023-04-07T10:49:31;13.10;99.90
20722;DHT22;10522;52.198;9.890;2023-04-07T10:54:36;13.40;99.90
20722;DHT22;10522;52.198;9.890;2023-04-07T10:59:32;13.40;99.90
20722;DHT22;10522;52.198;9.890;2023-04-07T11:04:40;13.20;99.90
20722;DHT22;10522;52.198;9.890;2023-04-07T11:07:07;13.20;99.90
20722;DHT22;10522;52.198;9.890;2023-04-07T11:09:33;13.30;99.90
20722;DHT22;10522;52.198;9.890;2023-04-07T11:11:59;13.10;99.90
20722;DHT22;10522;52.198;9.890;2023-04-07T11:14:28;13.20;99.90
20722;DHT22;10522;52.198;9.890;2023-04-07T11:16:55;13.60;99.90
20722;DHT22;10522;52.198;9.890;2023-04-07T11:19:21;13.50;99.90
20722;DHT22;10522;52.198;9.890;2023-04-07T11:21:46;13.60;99.90
20722;DHT22;10522;52.198;9.890;2023-04-07T11:24:31;13.50;99.90
20722;DHT22;10522;52.198;9.890;2023-04-07T11:26:57;13.30;99.90
20722;DHT22;10522;52.198;9.890;2023-04-07T11:29:33;13.40;99.90
20722;DHT22;10522;52.198;9.890;2023-04-07T11:32:01;13.50;99.90
20722;DHT22;10522;52.198;9.890;2023-04-07T11:34:34;13.60;99.90
20722;DHT22;10522;52.198;9.890;2023-04-07T11:39:51;13.70;99.90
20722;DHT22;10522;52.198;9.890;2023-04-07T11:42:31;14.10;99.90
20722;DHT22;10522;52.198;9.890;2023-04-07T11:44:56;13.80;99.90
20722;DHT22;10522;52.198;9.890;2023-04-07T11:47:33;13.80;99.90
20722;DHT22;10522;52.198;9.890;2023-04-07T11:49:59;14.10;99.90
20722;DHT22;10522;52.198;9.890;2023-04-07T11:52:24;14.10;99.90
20722;DHT22;10522;52.198;9.890;2023-04-07T11:54:51;13.90;99.90
20722;DHT22;10522;52.198;9.890;2023-04-07T11:57:27;13.90;99.90
20722;DHT22;10522;52.198;9.890;2023-04-07T12:00:11;13.90;99.90
20722;DHT22;10522;52.198;9.890;2023-04-07T12:02:38;14.00;99.90
20722;DHT22;10522;52.198;9.890;2023-04-07T12:05:05;14.20;99.90
20722;DHT22;10522;52.198;9.890;2023-04-07T12:07:31;14.10;99.90
20722;DHT22;10522;52.198;9.890;2023-04-07T12:09:56;14.30;99.90
20722;DHT22;10522;52.198;9.890;2023-04-07T12:12:28;14.40;99.90
20722;DHT22;10522;52.198;9.890;2023-04-07T12:14:58;14.30;99.90
20722;DHT22;10522;52.198;9.890;2023-04-07T12:17:49;14.30;99.90
20722;DHT22;10522;52.198;9.890;2023-04-07T12:20:15;14.50;99.90
20722;DHT22;10522;52.198;9.890;2023-04-07T12:22:41;14.60;99.90
20722;DHT22;10522;52.198;9.890;2023-04-07T12:25:07;14.60;99.90
20722;DHT22;10522;52.198;9.890;2023-04-07T12:27:32;14.50;99.90
20722;DHT22;10522;52.198;9.890;2023-04-07T12:29:58;14.70;99.90
20722;DHT22;10522;52.198;9.890;2023-04-07T12:32:24;15.00;99.90
20722;DHT22;10522;52.198;9.890;2023-04-07T12:34:50;14.90;99.90
20722;DHT22;10522;52.198;9.890;2023-04-07T12:37:16;14.80;99.90
20722;DHT22;10522;52.198;9.890;2023-04-07T12:39:41;14.80;99.90
20722;DHT22;10522;52.198;9.890;2023-04-07T12:42:07;14.90;99.90
20722;DHT22;10522;52.198;9.890;2023-04-07T12:44:36;15.10;99.90
20722;DHT22;10522;52.198;9.890;2023-04-07T12:47:02;14.80;99.90
20722;DHT22;10522;52.198;9.890;2023-04-07T12:49:27;14.60;99.90
20722;DHT22;10522;52.198;9.890;2023-04-07T12:51:53;14.80;99.90
20722;DHT22;10522;52.198;9.890;2023-04-07T12:54:18;14.70;99.90
20722;DHT22;10522;52.198;9.890;2023-04-07T12:56:44;14.60;99.90
20722;DHT22;10522;52.198;9.890;2023-04-07T12:59:10;14.80;99.90
20722;DHT22;10522;52.198;9.890;2023-04-07T13:01:35;15.20;99.90
20722;DHT22;10522;52.198;9.890;2023-04-07T13:04:01;15.10;99.90
20722;DHT22;10522;52.198;9.890;2023-04-07T13:06:27;14.80;99.90
20722;DHT22;10522;52.198;9.890;2023-04-07T13:08:52;15.00;99.90
20722;DHT22;10522;52.198;9.890;2023-04-07T13:11:18;15.10;99.90
20722;DHT22;10522;52.198;9.890;2023-04-07T13:13:44;15.50;99.90
20722;DHT22;10522;52.198;9.890;2023-04-07T13:16:09;15.30;99.90
20722;DHT22;10522;52.198;9.890;2023-04-07T13:18:35;15.50;99.90
20722;DHT22;10522;52.198;9.890;2023-04-07T13:21:01;15.50;99.90
20722;DHT22;10522;52.198;9.890;2023-04-07T13:23:27;15.40;99.90
20722;DHT22;10522;52.198;9.890;2023-04-07T13:25:53;15.70;99.90
20722;DHT22;10522;52.198;9.890;2023-04-07T13:28:18;15.50;99.90
20722;DHT22;10522;52.198;9.890;2023-04-07T13:30:45;15.70;99.90
20722;DHT22;10522;52.198;9.890;2023-04-07T13:33:11;15.50;99.90
20722;DHT22;10522;52.198;9.890;2023-04-07T13:35:37;16.00;99.90
20722;DHT22;10522;52.198;9.890;2023-04-07T13:38:03;15.80;99.90
20722;DHT22;10522;52.198;9.890;2023-04-07T13:40:29;15.00;99.90
20722;DHT22;10522;52.198;9.890;2023-04-07T13:42:55;15.20;99.90
20722;DHT22;10522;52.198;9.890;2023-04-07T13:45:25;15.30;99.90
20722;DHT22;10522;52.198;9.890;2023-04-07T13:47:51;15.80;99.90
20722;DHT22;10522;52.198;9.890;2023-04-07T13:50:16;15.50;99.90
20722;DHT22;10522;52.198;9.890;2023-04-07T13:52:42;15.70;99.90
20722;DHT22;10522;52.198;9.890;2023-04-07T13:55:08;15.40;99.90
20722;DHT22;10522;52.198;9.890;2023-04-07T13:57:33;15.50;99.90
20722;DHT22;10522;52.198;9.890;2023-04-07T13:59:59;15.40;99.90
20722;DHT22;10522;52.198;9.890;2023-04-07T14:02:25;15.60;99.90
20722;DHT22;10522;52.198;9.890;2023-04-07T14:04:53;15.90;99.90
20722;DHT22;10522;52.198;9.890;2023-04-07T14:07:19;16.30;99.90
20722;DHT22;10522;52.198;9.890;2023-04-07T14:09:45;15.90;99.90
20722;DHT22;10522;52.198;9.890;2023-04-07T14:12:12;15.30;99.90
20722;DHT22;10522;52.198;9.890;2023-04-07T14:14:38;15.20;99.90
20722;DHT22;10522;52.198;9.890;2023-04-07T14:17:03;15.70;99.90
20722;DHT22;10522;52.198;9.890;2023-04-07T14:19:29;15.80;99.90
20722;DHT22;10522;52.198;9.890;2023-04-07T14:21:54;15.80;99.90
20722;DHT22;10522;52.198;9.890;2023-04-07T14:24:20;15.20;99.90
20722;DHT22;10522;52.198;9.890;2023-04-07T14:26:46;14.80;99.90
20722;DHT22;10522;52.198;9.890;2023-04-07T14:29:12;15.10;99.90
20722;DHT22;10522;52.198;9.890;2023-04-07T14:31:38;15.00;99.90
20722;DHT22;10522;52.198;9.890;2023-04-07T14:34:04;15.30;99.90
20722;DHT22;10522;52.198;9.890;2023-04-07T14:36:31;15.50;99.90
20722;DHT22;10522;52.198;9.890;2023-04-07T14:38:57;15.50;99.90
20722;DHT22;10522;52.198;9.890;2023-04-07T14:41:26;15.70;99.90
20722;DHT22;10522;52.198;9.890;2023-04-07T14:43:52;15.90;99.90
20722;DHT22;10522;52.198;9.890;2023-04-07T14:46:24;16.10;99.90
20722;DHT22;10522;52.198;9.890;2023-04-07T14:48:51;16.80;99.90
20722;DHT22;10522;52.198;9.890;2023-04-07T14:51:17;17.40;99.90
20722;DHT22;10522;52.198;9.890;2023-04-07T14:53:43;18.10;99.90
20722;DHT22;10522;52.198;9.890;2023-04-07T14:56:11;18.30;99.90
20722;DHT22;10522;52.198;9.890;2023-04-07T14:58:36;18.80;99.90
20722;DHT22;10522;52.198;9.890;2023-04-07T15:01:04;18.80;99.90
20722;DHT22;10522;52.198;9.890;2023-04-07T15:03:30;19.10;99.90
20722;DHT22;10522;52.198;9.890;2023-04-07T15:05:55;18.90;99.90
20722;DHT22;10522;52.198;9.890;2023-04-07T15:08:22;18.70;99.90
20722;DHT22;10522;52.198;9.890;2023-04-07T15:10:47;18.90;99.90
20722;DHT22;10522;52.198;9.890;2023-04-07T15:13:13;19.20;99.90
20722;DHT22;10522;52.198;9.890;2023-04-07T15:15:39;19.70;99.00
20722;DHT22;10522;52.198;9.890;2023-04-07T15:18:04;19.30;99.90
20722;DHT22;10522;52.198;9.890;2023-04-07T15:20:30;19.20;98.40
20722;DHT22;10522;52.198;9.890;2023-04-07T15:22:56;19.00;98.50
20722;DHT22;10522;52.198;9.890;2023-04-07T15:25:21;19.70;98.70
20722;DHT22;10522;52.198;9.890;2023-04-07T15:27:48;20.10;99.40
20722;DHT22;10522;52.198;9.890;2023-04-07T15:30:13;19.90;98.20
20722;DHT22;10522;52.198;9.890;2023-04-07T15:32:39;19.40;98.20
20722;DHT22;10522;52.198;9.890;2023-04-07T15:35:05;19.30;98.20
20722;DHT22;10522;52.198;9.890;2023-04-07T15:37:31;19.30;97.80
20722;DHT22;10522;52.198;9.890;2023-04-07T15:39:56;19.10;97.60
20722;DHT22;10522;52.198;9.890;2023-04-07T15:42:22;19.10;98.50
20722;DHT22;10522;52.198;9.890;2023-04-07T15:44:48;18.80;98.20
20722;DHT22;10522;52.198;9.890;2023-04-07T15:47:13;18.20;99.80
20722;DHT22;10522;52.198;9.890;2023-04-07T15:50:05;17.70;99.40
20722;DHT22;10522;52.198;9.890;2023-04-07T16:07:03;18.40;98.50
20722;DHT22;10522;52.198;9.890;2023-04-07T16:12:04;18.10;99.50
20722;DHT22;10522;52.198;9.890;2023-04-07T16:14:30;17.50;99.60
20722;DHT22;10522;52.198;9.890;2023-04-07T16:22:07;17.20;99.90